sensor_id;sensor_type;location;lat;lon;timestamp;P1;durP1;ratioP1;P2;durP2;ratioP2
32393;SDS011;18853;45.426;9.206;2023-02-28T00:01:30;17.65;;;10.80;;
32393;SDS011;18853;45.426;9.206;2023-02-28T00:03:56;18.15;;;10.60;;
32393;SDS011;18853;45.426;9.206;2023-02-28T00:06:22;12.77;;;10.10;;
32393;SDS011;18853;45.426;9.206;2023-02-28T00:08:49;18.05;;;10.40;;
32393;SDS011;18853;45.426;9.206;2023-02-28T00:11:15;13.38;;;9.35;;
32393;SDS011;18853;45.426;9.206;2023-02-28T00:13:41;13.63;;;9.55;;
32393;SDS011;18853;45.426;9.206;2023-02-28T00:16:12;13.73;;;8.68;;
32393;SDS011;18853;45.426;9.206;2023-02-28T00:18:47;13.35;;;9.30;;
32393;SDS011;18853;45.426;9.206;2023-02-28T00:21:13;13.45;;;8.60;;
32393;SDS011;18853;45.426;9.206;2023-02-28T00:23:39;11.77;;;8.18;;
32393;SDS011;18853;45.426;9.206;2023-02-28T00:26:05;12.80;;;8.27;;
32393;SDS011;18853;45.426;9.206;2023-02-28T00:28:31;12.75;;;8.50;;
32393;SDS011;18853;45.426;9.206;2023-02-28T00:30:56;12.45;;;8.60;;
32393;SDS011;18853;45.426;9.206;2023-02-28T00:33:22;11.68;;;8.18;;
32393;SDS011;18853;45.426;9.206;2023-02-28T00:35:48;12.40;;;8.30;;
32393;SDS011;18853;45.426;9.206;2023-02-28T00:38:14;12.95;;;7.68;;
32393;SDS011;18853;45.426;9.206;2023-02-28T00:40:40;14.10;;;8.13;;
32393;SDS011;18853;45.426;9.206;2023-02-28T00:43:06;12.50;;;8.15;;
32393;SDS011;18853;45.426;9.206;2023-02-28T00:45:31;12.05;;;7.63;;
32393;SDS011;18853;45.426;9.206;2023-02-28T00:47:57;12.80;;;8.02;;
32393;SDS011;18853;45.426;9.206;2023-02-28T00:50:23;12.82;;;8.40;;
32393;SDS011;18853;45.426;9.206;2023-02-28T00:52:48;15.20;;;7.93;;
32393;SDS011;18853;45.426;9.206;2023-02-28T00:55:14;11.05;;;8.50;;
32393;SDS011;18853;45.426;9.206;2023-02-28T00:57:40;14.52;;;8.02;;
32393;SDS011;18853;45.426;9.206;2023-02-28T01:00:06;12.90;;;7.90;;
32393;SDS011;18853;45.426;9.206;2023-02-28T01:02:32;12.68;;;8.05;;
32393;SDS011;18853;45.426;9.206;2023-02-28T01:04:58;10.68;;;8.13;;
32393;SDS011;18853;45.426;9.206;2023-02-28T01:07:24;13.75;;;8.40;;
32393;SDS011;18853;45.426;9.206;2023-02-28T01:09:49;14.35;;;8.68;;
32393;SDS011;18853;45.426;9.206;2023-02-28T01:12:16;14.60;;;8.73;;
32393;SDS011;18853;45.426;9.206;2023-02-28T01:14:42;13.45;;;7.97;;
32393;SDS011;18853;45.426;9.206;2023-02-28T01:17:08;12.77;;;8.63;;
32393;SDS011;18853;45.426;9.206;2023-02-28T01:19:34;12.95;;;8.45;;
32393;SDS011;18853;45.426;9.206;2023-02-28T01:22:03;12.10;;;7.88;;
32393;SDS011;18853;45.426;9.206;2023-02-28T01:24:30;14.07;;;8.55;;
32393;SDS011;18853;45.426;9.206;2023-02-28T01:26:56;12.95;;;8.45;;
32393;SDS011;18853;45.426;9.206;2023-02-28T01:29:21;12.35;;;7.97;;
32393;SDS011;18853;45.426;9.206;2023-02-28T01:31:47;12.05;;;8.00;;
32393;SDS011;18853;45.426;9.206;2023-02-28T01:34:13;13.45;;;8.40;;
32393;SDS011;18853;45.426;9.206;2023-02-28T01:36:38;13.80;;;7.78;;
32393;SDS011;18853;45.426;9.206;2023-02-28T01:39:04;11.98;;;7.70;;
32393;SDS011;18853;45.426;9.206;2023-02-28T01:41:31;10.98;;;7.82;;
32393;SDS011;18853;45.426;9.206;2023-02-28T01:46:29;12.60;;;8.23;;
32393;SDS011;18853;45.426;9.206;2023-02-28T01:49:16;14.63;;;8.40;;
32393;SDS011;18853;45.426;9.206;2023-02-28T01:51:50;13.43;;;8.15;;
32393;SDS011;18853;45.426;9.206;2023-02-28T01:54:23;13.07;;;8.48;;
32393;SDS011;18853;45.426;9.206;2023-02-28T01:56:53;13.05;;;8.00;;
32393;SDS011;18853;45.426;9.206;2023-02-28T02:02:11;11.98;;;7.28;;
32393;SDS011;18853;45.426;9.206;2023-02-28T02:04:59;11.65;;;8.55;;
32393;SDS011;18853;45.426;9.206;2023-02-28T02:07:38;11.85;;;7.88;;
32393;SDS011;18853;45.426;9.206;2023-02-28T02:15:24;13.27;;;8.27;;
32393;SDS011;18853;45.426;9.206;2023-02-28T02:36:48;14.00;;;8.25;;
32393;SDS011;18853;45.426;9.206;2023-02-28T02:39:49;13.63;;;7.70;;
32393;SDS011;18853;45.426;9.206;2023-02-28T02:42:57;10.60;;;7.93;;
32393;SDS011;18853;45.426;9.206;2023-02-28T02:45:45;13.37;;;8.33;;
32393;SDS011;18853;45.426;9.206;2023-02-28T02:48:11;11.70;;;8.18;;
32393;SDS011;18853;45.426;9.206;2023-02-28T02:50:42;9.88;;;7.47;;
32393;SDS011;18853;45.426;9.206;2023-02-28T02:53:11;12.25;;;7.80;;
32393;SDS011;18853;45.426;9.206;2023-02-28T02:55:40;11.45;;;8.45;;
32393;SDS011;18853;45.426;9.206;2023-02-28T02:58:10;12.15;;;8.45;;
32393;SDS011;18853;45.426;9.206;2023-02-28T03:00:41;10.13;;;7.35;;
32393;SDS011;18853;45.426;9.206;2023-02-28T03:03:11;10.60;;;7.30;;
32393;SDS011;18853;45.426;9.206;2023-02-28T03:08:16;10.63;;;7.47;;
32393;SDS011;18853;45.426;9.206;2023-02-28T03:10:43;12.15;;;8.23;;
32393;SDS011;18853;45.426;9.206;2023-02-28T03:21:31;11.18;;;7.95;;
32393;SDS011;18853;45.426;9.206;2023-02-28T03:24:19;11.00;;;7.88;;
32393;SDS011;18853;45.426;9.206;2023-02-28T03:32:57;10.45;;;7.50;;
32393;SDS011;18853;45.426;9.206;2023-02-28T03:35:31;10.00;;;7.88;;
32393;SDS011;18853;45.426;9.206;2023-02-28T03:38:05;13.15;;;8.00;;
32393;SDS011;18853;45.426;9.206;2023-02-28T03:40:43;10.85;;;8.13;;
32393;SDS011;18853;45.426;9.206;2023-02-28T03:43:14;12.75;;;8.48;;
32393;SDS011;18853;45.426;9.206;2023-02-28T03:45:46;14.50;;;8.00;;
32393;SDS011;18853;45.426;9.206;2023-02-28T03:48:16;13.05;;;8.48;;
32393;SDS011;18853;45.426;9.206;2023-02-28T03:50:53;10.30;;;7.68;;
32393;SDS011;18853;45.426;9.206;2023-02-28T03:53:25;11.50;;;8.57;;
32393;SDS011;18853;45.426;9.206;2023-02-28T03:56:06;12.07;;;8.15;;
32393;SDS011;18853;45.426;9.206;2023-02-28T03:59:07;10.45;;;8.02;;
32393;SDS011;18853;45.426;9.206;2023-02-28T04:01:44;14.88;;;7.82;;
32393;SDS011;18853;45.426;9.206;2023-02-28T04:04:12;11.25;;;8.18;;
32393;SDS011;18853;45.426;9.206;2023-02-28T04:06:39;10.32;;;7.97;;
32393;SDS011;18853;45.426;9.206;2023-02-28T04:09:05;12.10;;;7.95;;
32393;SDS011;18853;45.426;9.206;2023-02-28T04:11:34;12.70;;;8.32;;
32393;SDS011;18853;45.426;9.206;2023-02-28T04:14:10;12.43;;;8.35;;
32393;SDS011;18853;45.426;9.206;2023-02-28T04:16:37;15.80;;;9.27;;
32393;SDS011;18853;45.426;9.206;2023-02-28T04:19:05;14.48;;;8.88;;
32393;SDS011;18853;45.426;9.206;2023-02-28T04:21:35;12.80;;;8.68;;
32393;SDS011;18853;45.426;9.206;2023-02-28T04:24:07;12.85;;;8.85;;
32393;SDS011;18853;45.426;9.206;2023-02-28T04:26:35;12.57;;;8.50;;
32393;SDS011;18853;45.426;9.206;2023-02-28T04:29:05;14.77;;;9.05;;
32393;SDS011;18853;45.426;9.206;2023-02-28T04:31:32;11.93;;;8.25;;
32393;SDS011;18853;45.426;9.206;2023-02-28T04:33:58;12.50;;;8.30;;
32393;SDS011;18853;45.426;9.206;2023-02-28T04:36:24;13.48;;;8.68;;
32393;SDS011;18853;45.426;9.206;2023-02-28T04:38:50;12.88;;;8.38;;
32393;SDS011;18853;45.426;9.206;2023-02-28T04:41:15;11.98;;;8.80;;
32393;SDS011;18853;45.426;9.206;2023-02-28T04:43:41;13.52;;;8.40;;
32393;SDS011;18853;45.426;9.206;2023-02-28T04:46:08;21.20;;;13.85;;
32393;SDS011;18853;45.426;9.206;2023-02-28T04:48:35;11.52;;;8.60;;
32393;SDS011;18853;45.426;9.206;2023-02-28T04:51:03;11.95;;;8.50;;
32393;SDS011;18853;45.426;9.206;2023-02-28T04:53:34;12.48;;;8.35;;
32393;SDS011;18853;45.426;9.206;2023-02-28T04:56:01;23.50;;;10.77;;
32393;SDS011;18853;45.426;9.206;2023-02-28T04:58:28;11.80;;;8.35;;
32393;SDS011;18853;45.426;9.206;2023-02-28T05:00:55;12.35;;;8.25;;
32393;SDS011;18853;45.426;9.206;2023-02-28T05:03:27;11.95;;;8.23;;
32393;SDS011;18853;45.426;9.206;2023-02-28T05:05:52;11.68;;;8.02;;
32393;SDS011;18853;45.426;9.206;2023-02-28T05:08:18;12.40;;;8.80;;
32393;SDS011;18853;45.426;9.206;2023-02-28T05:10:44;11.60;;;8.35;;
32393;SDS011;18853;45.426;9.206;2023-02-28T05:13:11;15.10;;;9.35;;
32393;SDS011;18853;45.426;9.206;2023-02-28T05:15:37;12.02;;;8.93;;
32393;SDS011;18853;45.426;9.206;2023-02-28T05:18:03;13.45;;;8.80;;
32393;SDS011;18853;45.426;9.206;2023-02-28T05:20:28;13.50;;;7.75;;
32393;SDS011;18853;45.426;9.206;2023-02-28T05:22:54;14.70;;;8.90;;
32393;SDS011;18853;45.426;9.206;2023-02-28T05:25:21;14.25;;;8.93;;
32393;SDS011;18853;45.426;9.206;2023-02-28T05:27:47;13.15;;;8.23;;
32393;SDS011;18853;45.426;9.206;2023-02-28T05:30:13;13.35;;;8.60;;
32393;SDS011;18853;45.426;9.206;2023-02-28T05:32:40;13.20;;;9.02;;
32393;SDS011;18853;45.426;9.206;2023-02-28T05:35:12;13.75;;;8.80;;
32393;SDS011;18853;45.426;9.206;2023-02-28T05:37:38;11.15;;;8.32;;
32393;SDS011;18853;45.426;9.206;2023-02-28T05:40:04;12.40;;;8.90;;
32393;SDS011;18853;45.426;9.206;2023-02-28T05:42:32;14.40;;;9.05;;
32393;SDS011;18853;45.426;9.206;2023-02-28T05:44:58;12.55;;;9.20;;
32393;SDS011;18853;45.426;9.206;2023-02-28T05:47:24;12.55;;;9.00;;
32393;SDS011;18853;45.426;9.206;2023-02-28T05:49:49;13.32;;;9.35;;
32393;SDS011;18853;45.426;9.206;2023-02-28T05:52:15;15.32;;;9.55;;
32393;SDS011;18853;45.426;9.206;2023-02-28T05:54:41;11.60;;;8.43;;
32393;SDS011;18853;45.426;9.206;2023-02-28T05:57:06;13.25;;;9.38;;
32393;SDS011;18853;45.426;9.206;2023-02-28T05:59:32;13.57;;;9.18;;
32393;SDS011;18853;45.426;9.206;2023-02-28T06:01:58;15.05;;;9.30;;
32393;SDS011;18853;45.426;9.206;2023-02-28T06:04:24;13.77;;;9.57;;
32393;SDS011;18853;45.426;9.206;2023-02-28T06:06:49;13.63;;;8.80;;
32393;SDS011;18853;45.426;9.206;2023-02-28T06:09:16;12.70;;;8.95;;
32393;SDS011;18853;45.426;9.206;2023-02-28T06:11:42;15.43;;;9.40;;
32393;SDS011;18853;45.426;9.206;2023-02-28T06:14:18;13.93;;;9.02;;
32393;SDS011;18853;45.426;9.206;2023-02-28T06:16:44;14.45;;;8.85;;
32393;SDS011;18853;45.426;9.206;2023-02-28T06:19:10;14.63;;;10.02;;
32393;SDS011;18853;45.426;9.206;2023-02-28T06:21:36;13.93;;;9.48;;
32393;SDS011;18853;45.426;9.206;2023-02-28T06:24:02;15.00;;;10.07;;
32393;SDS011;18853;45.426;9.206;2023-02-28T06:26:28;12.60;;;9.27;;
32393;SDS011;18853;45.426;9.206;2023-02-28T06:28:54;15.88;;;9.50;;
32393;SDS011;18853;45.426;9.206;2023-02-28T06:31:20;12.70;;;9.50;;
32393;SDS011;18853;45.426;9.206;2023-02-28T06:33:47;16.38;;;10.30;;
32393;SDS011;18853;45.426;9.206;2023-02-28T06:36:13;12.10;;;9.00;;
32393;SDS011;18853;45.426;9.206;2023-02-28T06:38:41;13.07;;;8.90;;
32393;SDS011;18853;45.426;9.206;2023-02-28T06:41:07;15.20;;;9.75;;
32393;SDS011;18853;45.426;9.206;2023-02-28T06:43:35;14.20;;;9.23;;
32393;SDS011;18853;45.426;9.206;2023-02-28T06:46:04;13.00;;;8.85;;
32393;SDS011;18853;45.426;9.206;2023-02-28T06:48:31;16.02;;;10.20;;
32393;SDS011;18853;45.426;9.206;2023-02-28T06:51:13;13.93;;;9.57;;
32393;SDS011;18853;45.426;9.206;2023-02-28T06:56:12;12.98;;;9.63;;
32393;SDS011;18853;45.426;9.206;2023-02-28T06:58:40;16.02;;;10.95;;
32393;SDS011;18853;45.426;9.206;2023-02-28T07:01:06;91.15;;;54.22;;
32393;SDS011;18853;45.426;9.206;2023-02-28T07:03:32;75.22;;;47.78;;
32393;SDS011;18853;45.426;9.206;2023-02-28T07:05:59;78.18;;;45.78;;
32393;SDS011;18853;45.426;9.206;2023-02-28T07:08:26;64.40;;;40.80;;
32393;SDS011;18853;45.426;9.206;2023-02-28T07:10:54;57.22;;;37.08;;
32393;SDS011;18853;45.426;9.206;2023-02-28T07:13:20;51.92;;;31.75;;
32393;SDS011;18853;45.426;9.206;2023-02-28T07:15:56;44.03;;;26.40;;
32393;SDS011;18853;45.426;9.206;2023-02-28T07:18:26;33.92;;;21.98;;
32393;SDS011;18853;45.426;9.206;2023-02-28T07:20:52;21.38;;;13.07;;
32393;SDS011;18853;45.426;9.206;2023-02-28T07:23:18;13.88;;;10.63;;
32393;SDS011;18853;45.426;9.206;2023-02-28T07:25:44;16.52;;;10.55;;
32393;SDS011;18853;45.426;9.206;2023-02-28T07:28:10;14.20;;;10.30;;
32393;SDS011;18853;45.426;9.206;2023-02-28T07:30:36;15.77;;;10.80;;
32393;SDS011;18853;45.426;9.206;2023-02-28T07:33:02;14.50;;;10.63;;
32393;SDS011;18853;45.426;9.206;2023-02-28T07:35:28;14.32;;;10.18;;
32393;SDS011;18853;45.426;9.206;2023-02-28T07:37:54;15.35;;;9.80;;
32393;SDS011;18853;45.426;9.206;2023-02-28T07:40:22;14.02;;;10.07;;
32393;SDS011;18853;45.426;9.206;2023-02-28T07:42:47;14.40;;;10.23;;
32393;SDS011;18853;45.426;9.206;2023-02-28T07:45:13;16.08;;;10.95;;
32393;SDS011;18853;45.426;9.206;2023-02-28T07:47:40;13.88;;;10.32;;
32393;SDS011;18853;45.426;9.206;2023-02-28T07:50:08;14.88;;;9.95;;
32393;SDS011;18853;45.426;9.206;2023-02-28T07:52:36;12.50;;;10.02;;
32393;SDS011;18853;45.426;9.206;2023-02-28T07:55:03;17.20;;;10.80;;
32393;SDS011;18853;45.426;9.206;2023-02-28T07:57:30;17.95;;;10.25;;
32393;SDS011;18853;45.426;9.206;2023-02-28T07:59:55;16.67;;;10.73;;
32393;SDS011;18853;45.426;9.206;2023-02-28T08:02:21;16.73;;;10.93;;
32393;SDS011;18853;45.426;9.206;2023-02-28T08:04:46;16.00;;;10.35;;
32393;SDS011;18853;45.426;9.206;2023-02-28T08:07:13;14.98;;;10.85;;
32393;SDS011;18853;45.426;9.206;2023-02-28T08:09:39;16.17;;;10.85;;
32393;SDS011;18853;45.426;9.206;2023-02-28T08:12:09;16.45;;;11.02;;
32393;SDS011;18853;45.426;9.206;2023-02-28T08:14:35;16.92;;;11.50;;
32393;SDS011;18853;45.426;9.206;2023-02-28T08:17:01;18.40;;;11.10;;
32393;SDS011;18853;45.426;9.206;2023-02-28T08:19:28;17.80;;;10.70;;
32393;SDS011;18853;45.426;9.206;2023-02-28T08:21:54;14.40;;;10.10;;
32393;SDS011;18853;45.426;9.206;2023-02-28T08:24:20;14.70;;;10.38;;
32393;SDS011;18853;45.426;9.206;2023-02-28T08:26:46;16.10;;;10.45;;
32393;SDS011;18853;45.426;9.206;2023-02-28T08:29:12;16.33;;;11.15;;
32393;SDS011;18853;45.426;9.206;2023-02-28T08:31:37;19.73;;;11.05;;
32393;SDS011;18853;45.426;9.206;2023-02-28T08:34:07;17.95;;;10.82;;
32393;SDS011;18853;45.426;9.206;2023-02-28T08:36:33;15.15;;;10.93;;
32393;SDS011;18853;45.426;9.206;2023-02-28T08:38:59;16.85;;;10.75;;
32393;SDS011;18853;45.426;9.206;2023-02-28T08:41:25;16.85;;;11.18;;
32393;SDS011;18853;45.426;9.206;2023-02-28T08:43:51;15.93;;;10.68;;
32393;SDS011;18853;45.426;9.206;2023-02-28T08:46:18;16.10;;;10.77;;
32393;SDS011;18853;45.426;9.206;2023-02-28T08:48:44;16.80;;;11.15;;
32393;SDS011;18853;45.426;9.206;2023-02-28T08:51:11;17.80;;;10.95;;
32393;SDS011;18853;45.426;9.206;2023-02-28T08:53:41;16.92;;;11.30;;
32393;SDS011;18853;45.426;9.206;2023-02-28T08:56:08;14.55;;;10.23;;
32393;SDS011;18853;45.426;9.206;2023-02-28T08:58:35;15.10;;;10.95;;
32393;SDS011;18853;45.426;9.206;2023-02-28T09:01:07;17.45;;;11.65;;
32393;SDS011;18853;45.426;9.206;2023-02-28T09:06:03;14.98;;;10.80;;
32393;SDS011;18853;45.426;9.206;2023-02-28T09:08:29;14.63;;;10.88;;
32393;SDS011;18853;45.426;9.206;2023-02-28T09:10:56;15.48;;;10.95;;
32393;SDS011;18853;45.426;9.206;2023-02-28T09:13:23;14.45;;;10.85;;
32393;SDS011;18853;45.426;9.206;2023-02-28T09:15:49;14.80;;;11.13;;
32393;SDS011;18853;45.426;9.206;2023-02-28T09:18:15;16.88;;;10.82;;
32393;SDS011;18853;45.426;9.206;2023-02-28T09:20:41;25.45;;;11.38;;
32393;SDS011;18853;45.426;9.206;2023-02-28T09:23:08;16.67;;;11.18;;
32393;SDS011;18853;45.426;9.206;2023-02-28T09:25:35;14.43;;;11.10;;
32393;SDS011;18853;45.426;9.206;2023-02-28T09:28:01;14.95;;;11.45;;
32393;SDS011;18853;45.426;9.206;2023-02-28T09:30:27;15.65;;;10.95;;
32393;SDS011;18853;45.426;9.206;2023-02-28T09:32:53;16.23;;;10.35;;
32393;SDS011;18853;45.426;9.206;2023-02-28T09:35:20;17.30;;;11.65;;
32393;SDS011;18853;45.426;9.206;2023-02-28T09:37:48;16.33;;;11.18;;
32393;SDS011;18853;45.426;9.206;2023-02-28T09:40:15;17.13;;;10.63;;
32393;SDS011;18853;45.426;9.206;2023-02-28T09:42:44;15.27;;;10.82;;
32393;SDS011;18853;45.426;9.206;2023-02-28T09:47:46;21.70;;;11.98;;
32393;SDS011;18853;45.426;9.206;2023-02-28T09:52:50;17.33;;;11.07;;
32393;SDS011;18853;45.426;9.206;2023-02-28T09:55:33;15.48;;;11.10;;
32393;SDS011;18853;45.426;9.206;2023-02-28T09:58:08;15.68;;;11.30;;
32393;SDS011;18853;45.426;9.206;2023-02-28T10:00:45;20.05;;;10.98;;
32393;SDS011;18853;45.426;9.206;2023-02-28T10:03:29;20.02;;;12.02;;
32393;SDS011;18853;45.426;9.206;2023-02-28T10:11:08;17.15;;;11.20;;
32393;SDS011;18853;45.426;9.206;2023-02-28T10:16:12;14.60;;;11.48;;
32393;SDS011;18853;45.426;9.206;2023-02-28T10:18:46;18.45;;;12.32;;
32393;SDS011;18853;45.426;9.206;2023-02-28T10:21:20;15.20;;;11.90;;
32393;SDS011;18853;45.426;9.206;2023-02-28T10:24:02;38.42;;;27.75;;
32393;SDS011;18853;45.426;9.206;2023-02-28T10:26:30;192.45;;;134.15;;
32393;SDS011;18853;45.426;9.206;2023-02-28T10:28:57;83.68;;;53.78;;
32393;SDS011;18853;45.426;9.206;2023-02-28T10:31:23;17.83;;;12.32;;
32393;SDS011;18853;45.426;9.206;2023-02-28T10:33:49;16.67;;;12.52;;
32393;SDS011;18853;45.426;9.206;2023-02-28T10:36:18;14.95;;;11.30;;
32393;SDS011;18853;45.426;9.206;2023-02-28T10:38:45;17.40;;;12.02;;
32393;SDS011;18853;45.426;9.206;2023-02-28T10:41:16;16.30;;;11.90;;
32393;SDS011;18853;45.426;9.206;2023-02-28T10:43:53;17.25;;;12.52;;
32393;SDS011;18853;45.426;9.206;2023-02-28T10:46:37;15.90;;;11.65;;
32393;SDS011;18853;45.426;9.206;2023-02-28T10:49:06;17.88;;;12.52;;
32393;SDS011;18853;45.426;9.206;2023-02-28T10:51:38;18.60;;;12.70;;
32393;SDS011;18853;45.426;9.206;2023-02-28T10:54:05;17.83;;;12.25;;
32393;SDS011;18853;45.426;9.206;2023-02-28T10:56:39;16.33;;;12.20;;
32393;SDS011;18853;45.426;9.206;2023-02-28T11:06:44;17.50;;;13.13;;
32393;SDS011;18853;45.426;9.206;2023-02-28T11:09:18;16.75;;;13.20;;
32393;SDS011;18853;45.426;9.206;2023-02-28T11:11:56;18.70;;;13.23;;
32393;SDS011;18853;45.426;9.206;2023-02-28T11:14:26;16.67;;;12.75;;
32393;SDS011;18853;45.426;9.206;2023-02-28T11:16:54;19.38;;;13.80;;
32393;SDS011;18853;45.426;9.206;2023-02-28T11:19:38;20.30;;;13.43;;
32393;SDS011;18853;45.426;9.206;2023-02-28T11:22:09;18.52;;;13.02;;
32393;SDS011;18853;45.426;9.206;2023-02-28T11:24:45;18.35;;;13.27;;
32393;SDS011;18853;45.426;9.206;2023-02-28T11:29:51;19.97;;;14.07;;
32393;SDS011;18853;45.426;9.206;2023-02-28T11:32:20;18.58;;;13.75;;
32393;SDS011;18853;45.426;9.206;2023-02-28T11:35:04;21.45;;;14.63;;
32393;SDS011;18853;45.426;9.206;2023-02-28T11:37:42;20.45;;;14.25;;
32393;SDS011;18853;45.426;9.206;2023-02-28T11:40:23;20.38;;;14.60;;
32393;SDS011;18853;45.426;9.206;2023-02-28T11:48:23;19.20;;;13.93;;
32393;SDS011;18853;45.426;9.206;2023-02-28T11:51:15;20.80;;;14.32;;
32393;SDS011;18853;45.426;9.206;2023-02-28T11:56:46;19.35;;;13.65;;
32393;SDS011;18853;45.426;9.206;2023-02-28T11:59:22;20.17;;;14.93;;
32393;SDS011;18853;45.426;9.206;2023-02-28T12:05:29;21.75;;;16.08;;
32393;SDS011;18853;45.426;9.206;2023-02-28T12:08:23;21.63;;;15.98;;
32393;SDS011;18853;45.426;9.206;2023-02-28T12:13:38;19.95;;;16.05;;
32393;SDS011;18853;45.426;9.206;2023-02-28T12:24:45;21.70;;;16.48;;
32393;SDS011;18853;45.426;9.206;2023-02-28T12:27:35;20.30;;;15.50;;
32393;SDS011;18853;45.426;9.206;2023-02-28T12:32:58;20.23;;;14.88;;
32393;SDS011;18853;45.426;9.206;2023-02-28T12:35:38;20.42;;;15.38;;
32393;SDS011;18853;45.426;9.206;2023-02-28T12:38:19;22.42;;;17.27;;
32393;SDS011;18853;45.426;9.206;2023-02-28T12:40:51;22.58;;;17.58;;
32393;SDS011;18853;45.426;9.206;2023-02-28T12:43:28;23.50;;;17.20;;
32393;SDS011;18853;45.426;9.206;2023-02-28T12:46:00;24.25;;;18.30;;
32393;SDS011;18853;45.426;9.206;2023-02-28T12:48:43;23.95;;;18.02;;
32393;SDS011;18853;45.426;9.206;2023-02-28T12:51:13;24.27;;;17.25;;
32393;SDS011;18853;45.426;9.206;2023-02-28T13:02:32;24.00;;;18.90;;
32393;SDS011;18853;45.426;9.206;2023-02-28T13:10:04;24.60;;;17.70;;
32393;SDS011;18853;45.426;9.206;2023-02-28T13:12:32;22.00;;;17.27;;
32393;SDS011;18853;45.426;9.206;2023-02-28T13:15:07;23.15;;;18.10;;
32393;SDS011;18853;45.426;9.206;2023-02-28T13:17:47;24.00;;;18.80;;
32393;SDS011;18853;45.426;9.206;2023-02-28T13:20:36;21.88;;;17.95;;
32393;SDS011;18853;45.426;9.206;2023-02-28T13:23:02;23.77;;;18.02;;
32393;SDS011;18853;45.426;9.206;2023-02-28T13:28:00;24.10;;;18.08;;
32393;SDS011;18853;45.426;9.206;2023-02-28T13:38:40;22.92;;;17.58;;
32393;SDS011;18853;45.426;9.206;2023-02-28T13:52:07;22.50;;;17.48;;
32393;SDS011;18853;45.426;9.206;2023-02-28T14:09:00;23.58;;;18.48;;
32393;SDS011;18853;45.426;9.206;2023-02-28T14:11:36;25.55;;;18.58;;
32393;SDS011;18853;45.426;9.206;2023-02-28T14:14:04;25.85;;;19.23;;
32393;SDS011;18853;45.426;9.206;2023-02-28T14:16:38;25.42;;;18.95;;
32393;SDS011;18853;45.426;9.206;2023-02-28T14:19:12;24.02;;;19.08;;
32393;SDS011;18853;45.426;9.206;2023-02-28T14:21:59;22.77;;;18.33;;
32393;SDS011;18853;45.426;9.206;2023-02-28T14:30:26;29.02;;;19.52;;
32393;SDS011;18853;45.426;9.206;2023-02-28T14:33:13;23.05;;;18.65;;
32393;SDS011;18853;45.426;9.206;2023-02-28T14:38:18;24.50;;;18.60;;
32393;SDS011;18853;45.426;9.206;2023-02-28T14:40:47;25.20;;;19.73;;
32393;SDS011;18853;45.426;9.206;2023-02-28T14:43:20;24.85;;;18.60;;
32393;SDS011;18853;45.426;9.206;2023-02-28T14:45:51;23.42;;;18.88;;
32393;SDS011;18853;45.426;9.206;2023-02-28T14:48:23;22.60;;;18.50;;
32393;SDS011;18853;45.426;9.206;2023-02-28T14:50:52;26.48;;;19.08;;
32393;SDS011;18853;45.426;9.206;2023-02-28T14:53:20;23.55;;;19.90;;
32393;SDS011;18853;45.426;9.206;2023-02-28T14:55:48;26.67;;;19.13;;
32393;SDS011;18853;45.426;9.206;2023-02-28T14:58:30;23.85;;;19.08;;
32393;SDS011;18853;45.426;9.206;2023-02-28T15:00:58;24.48;;;19.08;;
32393;SDS011;18853;45.426;9.206;2023-02-28T15:06:02;22.25;;;18.67;;
32393;SDS011;18853;45.426;9.206;2023-02-28T15:08:37;26.88;;;20.58;;
32393;SDS011;18853;45.426;9.206;2023-02-28T15:11:13;24.42;;;20.65;;
32393;SDS011;18853;45.426;9.206;2023-02-28T15:13:45;22.95;;;19.23;;
32393;SDS011;18853;45.426;9.206;2023-02-28T15:21:14;26.50;;;20.60;;
32393;SDS011;18853;45.426;9.206;2023-02-28T15:23:43;26.63;;;20.48;;
32393;SDS011;18853;45.426;9.206;2023-02-28T15:26:21;26.88;;;20.05;;
32393;SDS011;18853;45.426;9.206;2023-02-28T15:28:58;27.15;;;20.00;;
32393;SDS011;18853;45.426;9.206;2023-02-28T15:33:58;27.83;;;19.30;;
32393;SDS011;18853;45.426;9.206;2023-02-28T15:36:29;25.85;;;19.27;;
32393;SDS011;18853;45.426;9.206;2023-02-28T15:38:58;26.65;;;21.02;;
32393;SDS011;18853;45.426;9.206;2023-02-28T15:44:13;27.67;;;21.33;;
32393;SDS011;18853;45.426;9.206;2023-02-28T15:47:00;26.00;;;20.38;;
32393;SDS011;18853;45.426;9.206;2023-02-28T15:49:45;24.23;;;18.90;;
32393;SDS011;18853;45.426;9.206;2023-02-28T15:52:34;25.73;;;19.58;;
32393;SDS011;18853;45.426;9.206;2023-02-28T15:55:09;24.50;;;20.60;;
32393;SDS011;18853;45.426;9.206;2023-02-28T15:57:51;26.58;;;21.25;;
32393;SDS011;18853;45.426;9.206;2023-02-28T16:00:24;29.15;;;19.92;;
32393;SDS011;18853;45.426;9.206;2023-02-28T16:02:51;27.85;;;21.35;;
32393;SDS011;18853;45.426;9.206;2023-02-28T16:05:29;25.77;;;19.83;;
32393;SDS011;18853;45.426;9.206;2023-02-28T16:08:01;24.83;;;20.17;;
32393;SDS011;18853;45.426;9.206;2023-02-28T16:10:38;25.88;;;20.38;;
32393;SDS011;18853;45.426;9.206;2023-02-28T16:13:04;26.73;;;21.02;;
32393;SDS011;18853;45.426;9.206;2023-02-28T16:15:31;27.17;;;20.45;;
32393;SDS011;18853;45.426;9.206;2023-02-28T16:18:07;26.48;;;19.58;;
32393;SDS011;18853;45.426;9.206;2023-02-28T16:20:36;32.78;;;20.98;;
32393;SDS011;18853;45.426;9.206;2023-02-28T16:23:01;28.42;;;20.83;;
32393;SDS011;18853;45.426;9.206;2023-02-28T16:25:38;27.55;;;21.20;;
32393;SDS011;18853;45.426;9.206;2023-02-28T16:28:20;27.13;;;21.75;;
32393;SDS011;18853;45.426;9.206;2023-02-28T16:30:56;27.50;;;21.10;;
32393;SDS011;18853;45.426;9.206;2023-02-28T16:33:22;24.90;;;20.45;;
32393;SDS011;18853;45.426;9.206;2023-02-28T16:35:48;24.88;;;20.17;;
32393;SDS011;18853;45.426;9.206;2023-02-28T16:38:14;28.85;;;20.67;;
32393;SDS011;18853;45.426;9.206;2023-02-28T16:40:40;24.85;;;20.20;;
32393;SDS011;18853;45.426;9.206;2023-02-28T16:43:10;24.83;;;19.80;;
32393;SDS011;18853;45.426;9.206;2023-02-28T16:45:41;27.73;;;19.92;;
32393;SDS011;18853;45.426;9.206;2023-02-28T16:48:10;27.02;;;20.70;;
32393;SDS011;18853;45.426;9.206;2023-02-28T16:50:39;26.30;;;19.73;;
32393;SDS011;18853;45.426;9.206;2023-02-28T16:53:04;25.77;;;20.08;;
32393;SDS011;18853;45.426;9.206;2023-02-28T16:55:30;27.65;;;20.05;;
32393;SDS011;18853;45.426;9.206;2023-02-28T16:57:57;25.77;;;20.10;;
32393;SDS011;18853;45.426;9.206;2023-02-28T17:00:24;26.92;;;20.55;;
32393;SDS011;18853;45.426;9.206;2023-02-28T17:02:51;25.48;;;19.55;;
32393;SDS011;18853;45.426;9.206;2023-02-28T17:05:17;26.38;;;19.77;;
32393;SDS011;18853;45.426;9.206;2023-02-28T17:07:43;25.20;;;19.23;;
32393;SDS011;18853;45.426;9.206;2023-02-28T17:10:30;26.23;;;20.10;;
32393;SDS011;18853;45.426;9.206;2023-02-28T17:12:55;26.35;;;19.95;;
32393;SDS011;18853;45.426;9.206;2023-02-28T17:15:21;26.80;;;19.85;;
32393;SDS011;18853;45.426;9.206;2023-02-28T17:17:47;24.23;;;18.92;;
32393;SDS011;18853;45.426;9.206;2023-02-28T17:20:17;25.20;;;19.30;;
32393;SDS011;18853;45.426;9.206;2023-02-28T17:22:47;24.73;;;19.02;;
32393;SDS011;18853;45.426;9.206;2023-02-28T17:25:14;24.30;;;18.83;;
32393;SDS011;18853;45.426;9.206;2023-02-28T17:27:39;24.25;;;18.40;;
32393;SDS011;18853;45.426;9.206;2023-02-28T17:32:40;24.98;;;19.25;;
32393;SDS011;18853;45.426;9.206;2023-02-28T17:35:06;26.63;;;19.17;;
32393;SDS011;18853;45.426;9.206;2023-02-28T17:37:33;25.77;;;19.73;;